Carlos Ramos

Scout - Rosario Central
20 Nov 2027
Saturday
Process

Personality

Adaptability (16) Ambition (14) Controversy (19) Loyalty (15) Pressure (13) Professionalism (11) Sportsmanship (9) Temperament (10)

Profile

Coaching Style Democratic
License National B
Determination 6
Man Management 5
Motivating 7
Discipline 13
Job Satisfaction
100%
Fatigue
0%
Role Scout
Wage 88.0K p/w
Contract 14.03.2029

Performance

Behaviour Good
Training Effectiveness
50%
Player Development
50%
Injury Prevention
70%
Tactical Implementation
50%

Recent Events

Attended a recruitment meeting 7d ago
Attended a recruitment meeting 7d ago
Attended a recruitment meeting 14d ago
Attended a recruitment meeting 14d ago
Attended a recruitment meeting 21d ago
Attended a recruitment meeting 21d ago
Attended a recruitment meeting 28d ago
Attended a recruitment meeting 28d ago

Currently Monitoring

160
Player Club Status Ability Confidence Watched Last Observed Latest Vote
Federico Pérez Agropecuario Argentino Lost 104 / 115 69% 1 12.07.2027 -
Ricardo Centurión Racing Lost 106 / 119 69% 1 05.07.2027 -
Abraham Paintsil Hasaacas Active 89 / 83 40% 4 31.05.2027 -
Christos Mouzakitis Hull City Active 121 / 138 40% 4 31.05.2027 -
Lucas Bergvall Tottenham Active 142 / 140 40% 2 31.05.2027 -
Filip Marschall Stevenage Active 105 / 99 40% 7 28.05.2027 -
Radek Vítek Middlesbrough Active 137 / 153 40% 11 28.05.2027 -
Thiago Silvero Sevilla Active 116 / 120 40% 3 28.05.2027 -
Tobías Ramírez Sevilla Active 129 / 124 40% 2 28.05.2027 -
Sebastián Flores Rayo Vallecano Active 96 / 109 40% 2 28.05.2027 -
Zach Hemming Chesterfield Active 105 / 106 40% 3 28.05.2027 -
Sascha Britschgi Catanzaro Active 123 / 132 40% 3 27.05.2027 -
Enzo Cardozo Virtus Entella Active 115 / 129 40% 2 26.05.2027 -
Jofre Torrents Ajax Active 118 / 125 40% 1 26.05.2027 -
Luis Ingolotti Girona Active 134 / 136 40% 1 24.05.2027 -
Juan David Arizala Udinese Active 133 / 127 40% 1 23.05.2027 -
George Wickens Lincoln City Active 121 / 115 40% 7 20.05.2027 -
Josh Keeley Luton Town Active 139 / 141 40% 5 20.05.2027 -
Myles Roberts Doncaster Rovers Active 110 / 91 40% 7 20.05.2027 -
Diego Cheuquepal Racing Active 94 / 111 40% 2 17.05.2027 -
Bakary Haïdara Hearts of Oak Active 102 / 129 40% 1 17.05.2027 -
Kostantis Tzolakis Hull City Active 145 / 161 40% 12 15.05.2027 -
Riquelme Thompson-Jones Shrewsbury Town Active 103 / 126 40% 2 15.05.2027 -
Jordan Amissah Burton Albion Active 114 / 96 40% 2 15.05.2027 -
Matías Gómez Valencia Active 118 / 120 40% 1 15.05.2027 -
Maduka Okoye Udinese Active 149 / 132 40% 5 13.05.2027 -
William Rovida Pro Patria Active 111 / 91 40% 3 13.05.2027 -
Murphy Cooper Plymouth Argyle Active 104 / 130 40% 5 12.05.2027 -
Pietro Reggiori Pro Patria Active 93 / 107 40% 2 10.05.2027 -
Zahir Ibarra Elche Active 95 / 91 40% 1 10.05.2027 -
Jaydee Canvot Liverpool Active 129 / 122 40% 1 10.05.2027 -
Đorđe Petrović Bournemouth Active 151 / 143 40% 4 09.05.2027 -
Erico Cuello Defensor Sporting Active 94 / 109 40% 3 09.05.2027 -
Sam Curtis Swindon Town Active 108 / 94 40% 1 09.05.2027 -
Matteo Rizzo Cosenza Active 110 / 121 40% 1 05.05.2027 -
Elia Boseggia Novara Active 113 / 123 40% 1 04.05.2027 -
Facundo Di Biasi Getafe Active 121 / 115 40% 2 03.05.2027 -
Jonathan De Irastorza Levante Active 110 / 114 40% 2 03.05.2027 -
Joshua Oluwayemi Walsall Active 108 / 90 40% 2 30.04.2027 -
T-Jay Parfitt Cardiff City Active 85 / 83 40% 1 29.04.2027 -
Facundo Balatti Penarol Active 99 / 123 40% 1 28.04.2027 -
Gianluca Saro Foggia Active 111 / 109 40% 1 25.04.2027 -
Will Dennis Milton Keynes Dons Active 118 / 102 40% 3 24.04.2027 -
Lorenzo Palmisani Frosinone Active 136 / 148 40% 4 24.04.2027 -
Tiago Freitas Benfica Active 99 / 109 40% 1 23.04.2027 -
Lucas Jetten Cambuur Active 114 / 113 40% 2 20.04.2027 -
Tommaso Cecotti Carpi Active 98 / 89 40% 1 20.04.2027 -
Mads Hermansen West Ham United Active 131 / 146 40% 6 18.04.2027 -
Williams Mahlangu SuperSport United Active 103 / 98 40% 2 18.04.2027 -
Leandro Martins Benfica Active 94 / 102 40% 3 16.04.2027 -
Anthony Patterson Wrexham Active 132 / 137 40% 5 12.04.2027 -
Gonçalo Oliveira Benfica Active 97 / 123 40% 1 05.04.2027 -
Surprise Manthosi Polokwane City Active 91 / 87 40% 1 05.04.2027 -
Ludovico Del Sorbo Sorrento Active 99 / 103 40% 1 04.04.2027 -
James Trafford Leeds United Active 141 / 138 40% 6 26.03.2027 -
Michael Cooper Sheffield United Active 142 / 136 40% 4 26.03.2027 -
Samu Maccabi Netanya Active 107 / 107 40% 2 24.03.2027 -
Arthur Beroe Active 112 / 126 40% 1 18.03.2027 -
Nathan Bishop AFC Wimbledon Active 96 / 101 40% 3 12.03.2027 -
Grégoire Coudert Burnley Active 121 / 121 40% 4 11.03.2027 -
Bento Lokomotiv Moscow Active 130 / 152 40% 1 03.03.2027 -
Fathy Tarek Masr El Makasa Active 97 / 116 40% 2 25.02.2027 -
Fran Vieites Exeter City Active 115 / 121 40% 4 25.02.2027 -
Taye Ashby-Hammond Cheltenham Town Active 109 / 109 40% 2 22.02.2027 -
Killian Cahill Leyton Orient Active 96 / 118 40% 2 20.02.2027 -
Lukas Jensen Millwall Active 128 / 102 40% 3 13.02.2027 -
Svetoslav Vutsov Levski Active 121 / 124 40% 5 12.02.2027 -
Fabrizio Correa Nacional Active 115 / 127 40% 1 12.02.2027 -
Heorhii Yermakov Metalist Active 108 / 107 40% 4 07.02.2027 -
Carl Rushworth Coventry City Active 126 / 143 40% 3 05.02.2027 -
Mohamed Camara Asante Kotoko Active 92 / 102 40% 1 05.02.2027 -
Federico Varese Racing Active 114 / 113 40% 6 31.01.2027 -
Osagie Onisodumeya Al Gaish Active 96 / 115 40% 1 25.01.2027 -
Evidence Billiat Ajax Cape Town Active 120 / 96 40% 2 24.01.2027 -
Ivan Pakholiuk Kolos Active 110 / 121 40% 2 12.01.2027 -
Igor Nikić Lech Active 113 / 131 40% 1 11.01.2027 -
Agustín Lastra Estudiantes Active 105 / 106 40% 1 06.01.2027 -
Tomáš Frühwald Bohemians 1905 Active 123 / 103 40% 2 04.01.2027 -
Nicolás Azambuja Danubio Active 108 / 124 40% 7 24.11.2026 -
Albert Posiadała Molde Active 134 / 126 40% 5 24.11.2026 -
Inti López River Plate Active 91 / 105 40% 1 24.11.2026 -
Enrique Almeida Cerro Largo Active 95 / 90 40% 3 22.11.2026 -
Luka Andrade Montevideo City Torque Active 103 / 111 40% 3 21.11.2026 -
Sindre Walle Egeli Nottingham Forest Active 139 / 144 40% 1 19.11.2026 -
Federico Losas Chacarita Juniors Active 111 / 114 40% 4 17.11.2026 -
Alexandr Koryakin Krasnodar Active 122 / 97 40% 3 17.11.2026 -
Felipe Zenobio Tigre Active 127 / 131 40% 2 14.11.2026 -
Luciano Inverso Rentistas Active 106 / 115 40% 4 13.11.2026 -
Matías Contrera Northampton Town Active 87 / 101 40% 3 13.11.2026 -
Matías Dufour Sportivo Trinidense Active 108 / 106 40% 1 11.11.2026 -
Luka Baš Koper Active 101 / 116 40% 1 10.11.2026 -
Klemen Mihelak Jablonec Active 103 / 94 40% 2 09.11.2026 -
Franco Zapiola Platense Active 124 / 114 40% 1 08.11.2026 -
Alexis Cuello San Lorenzo Active 123 / 121 40% 1 08.11.2026 -
Luca Langoni New England Revolution Active 141 / 133 40% 1 08.11.2026 -
Victor Aznar Cádiz Active 127 / 128 40% 1 05.11.2026 -
Strahinja Manojlović Radnicki Nis Active 105 / 92 40% 1 05.11.2026 -
Raúl Rangel Brighton Active 134 / 117 40% 2 03.11.2026 -
Sebastián Jaume Albion Active 100 / 98 40% 1 02.11.2026 -
Ángel González Libertad Active 108 / 104 40% 4 01.11.2026 -
Nicolás Bolcato Independiente Rivadavia Active 107 / 111 40% 3 30.10.2026 -
Santiago González Tigre Active 130 / 117 40% 1 30.10.2026 -
Relebohile Mofokeng Orlando Pirates Active 122 / 114 40% 1 30.10.2026 -
Viktor Baier Viktoria Plzen Active 107 / 124 40% 1 30.10.2026 -
Elías Báez Atlanta United FC Active 109 / 140 40% 1 27.10.2026 -
Tadeo Allende Inter Miami CF Active 116 / 104 40% 1 27.10.2026 -
Lucas Ruiz Ferro Carril Oeste Active 112 / 120 40% 2 26.10.2026 -
Marc Pubill Atlético Madrid Active 151 / 153 40% 2 26.10.2026 -
Marquinhos Spartak Moscow Active 135 / 112 40% 1 26.10.2026 -
Santiago Montiel Independiente Active 118 / 135 40% 1 26.10.2026 -
Carlos Palacios Boca Juniors Active 129 / 131 40% 1 25.10.2026 -
David Ayala Inter Miami CF Active 110 / 113 40% 1 25.10.2026 -
Marvin Keller Racing Genk Negotiating 143 / 128 40% 4 23.10.2026 Monitor
Tomás Ahumada Audax Italiano Active 104 / 111 40% 1 22.10.2026 -
Denys Ihnatenko Livyi Bereh Active 104 / 110 40% 1 21.10.2026 -
Agustín Ruberto River Plate Active 119 / 123 40% 3 19.10.2026 -
Szymon Weirauch Lechia Active 102 / 88 40% 1 19.10.2026 -
Tiziano Dornell Almagro Active 119 / 115 40% 3 17.10.2026 -
Bautista Pereira Danubio Active 87 / 90 40% 2 17.10.2026 -
Martin Carreño San Luis Active 86 / 100 40% 2 17.10.2026 -
Pascal Loretz Luzern Active 115 / 107 40% 1 17.10.2026 -
Matías Fernández Independiente Rivadavia Active 115 / 113 40% 1 16.10.2026 -
Luciano Boggio Nacional Active 117 / 131 40% 1 16.10.2026 -
Pablo Suárez Rentistas Active 90 / 92 40% 2 15.10.2026 -
Facundo Núñez Liverpool Montevideo Active 92 / 105 40% 4 14.10.2026 -
Dilan Godoy Vélez Active 107 / 115 40% 1 14.10.2026 -
Oleksandr Saputin Zorya Active 102 / 121 40% 1 13.10.2026 -
Fedor Lapoukhov CSKA Sofia Active 123 / 123 40% 2 12.10.2026 -
Facundo Vila Estudiantes Active 103 / 113 40% 2 04.10.2026 -
Héctor Holguín Morelia Active 121 / 102 40% 1 04.10.2026 -
Tomás Chancalay Minnesota United FC Active 122 / 138 40% 1 29.09.2026 -
Helinho Toluca Active 121 / 142 40% 1 29.09.2026 -
Alejo Cruz Juventud Active 113 / 115 40% 1 29.09.2026 -
Patrick Preciado Deportivo Pasto Active 100 / 102 40% 2 28.09.2026 -
Yoshan Valois Lanús Active 120 / 113 40% 3 26.09.2026 -
Nicolás Sumavil Platense Active 116 / 125 40% 1 24.09.2026 -
Yastin Cuevas Colo-Colo Active 92 / 114 40% 1 21.09.2026 -
Felipe Serrés Wanderers Active 88 / 103 40% 2 18.09.2026 -
Juan David Ruiz Leones Active 94 / 93 40% 1 17.09.2026 -
Ihojan Pérez Cerro Largo Active 90 / 94 40% 1 17.09.2026 -
Sławomir Abramowicz Jagiellonia Active 106 / 141 40% 1 16.09.2026 -
Franco Romero Toluca Active 129 / 120 40% 1 15.09.2026 -
Ramiro Sordo Santos Laguna Active 125 / 111 40% 1 15.09.2026 -
Elis Bishesari IFK Goteborg Active 107 / 136 40% 2 14.09.2026 -
Andreas Jungdal Westerlo Active 126 / 104 40% 2 13.09.2026 -
Beau Reus Waasland-Beveren Active 116 / 106 40% 2 12.09.2026 -
Bruno Hernández Cerro Largo Active 92 / 96 40% 1 11.09.2026 -
Mauro Silveira Junior Active 119 / 116 40% 1 11.09.2026 -
Miguel Hurtado Valledupar Active 101 / 94 40% 1 11.09.2026 -
Pablo Lara Pumas UNAM Active 109 / 98 40% 3 10.09.2026 -
Miguel Acosta Argentinos Juniors Active 113 / 96 40% 1 07.09.2026 -
Diego Otoya Sporting Cristal Active 86 / 91 40% 1 30.08.2026 -
Efrain Reyes Monterrey Active 96 / 103 40% 2 22.08.2026 -
Jakub Surovčík Sparta Prague Active 95 / 128 40% 1 22.08.2026 -
Luis Palacios Tigres Active 104 / 106 40% 2 16.08.2026 -
Gino Santilli Banfield Active 117 / 108 40% 1 14.08.2026 -
Nahuel Galardi Maipú Active 101 / 108 40% 1 08.08.2026 -
Santiago Roggero Gimnasia y Esgrima Active 105 / 105 40% 1 08.08.2026 -
Diego Enríquez Sporting Cristal Active 129 / 128 40% 1 08.08.2026 -
Ángel Fortuño Espanyol Active 133 / 129 40% 1 01.08.2026 -